Time;durP1;ratioP1;P1;durP2;ratioP2;P2;SDS_P1;SDS_P2;PMS_P1;PMS_P2;Temp;Humidity;BMP_temperature;BMP_pressure;BME280_temperature;BME280_humidity;BME280_pressure;Samples;Min_cycle;Max_cycle;Signal;HPM_P1;HPM_P2
2023/08/27 00:01:49;;;;;;;1.80;1.70;;;;;;;16.52;81.05;100793.56;3583114;40;20072;-65
2023/08/27 00:04:15;;;;;;;2.05;1.80;;;;;;;16.35;83.00;100758.94;3583832;40;20052;-65
2023/08/27 00:06:41;;;;;;;2.15;1.95;;;;;;;16.41;82.71;100780.97;3582606;40;20480;-65
2023/08/27 00:09:06;;;;;;;2.67;2.20;;;;;;;16.31;84.23;100760.19;3584381;40;20335;-65
2023/08/27 00:11:32;;;;;;;3.78;2.05;;;;;;;16.26;85.46;100755.16;3581930;40;20430;-64
2023/08/27 00:13:58;;;;;;;2.60;2.05;;;;;;;16.24;85.80;100743.59;3583700;40;20471;-64
2023/08/27 00:16:24;;;;;;;2.88;2.10;;;;;;;16.15;86.01;100737.13;3582334;40;20060;-65
2023/08/27 00:18:49;;;;;;;2.70;2.10;;;;;;;16.09;86.68;100742.22;3584012;39;20055;-67
2023/08/27 00:21:15;;;;;;;2.38;2.15;;;;;;;16.05;87.32;100729.91;3583017;39;20054;-65
2023/08/27 00:23:41;;;;;;;2.33;2.13;;;;;;;15.98;87.03;100714.19;3585035;40;20275;-66
2023/08/27 00:26:07;;;;;;;3.55;2.10;;;;;;;15.96;89.29;100713.44;3582012;40;20056;-66
2023/08/27 00:28:33;;;;;;;2.75;2.15;;;;;;;15.95;89.01;100700.91;3578580;40;20083;-66
2023/08/27 00:31:03;;;;;;;3.10;2.10;;;;;;;15.91;90.53;100701.28;3582270;40;20075;-65
2023/08/27 00:33:30;;;;;;;2.15;1.95;;;;;;;15.76;90.63;100676.34;3582083;40;20339;-67
2023/08/27 00:35:56;;;;;;;3.40;2.10;;;;;;;15.88;90.80;100696.97;3581839;40;20484;-66
2023/08/27 00:38:22;;;;;;;3.70;2.00;;;;;;;15.86;91.30;100689.94;3584213;40;20483;-66
2023/08/27 00:40:47;;;;;;;2.92;1.83;;;;;;;15.73;91.28;100672.06;3583450;40;20056;-66
2023/08/27 00:43:13;;;;;;;1.92;1.73;;;;;;;15.77;90.87;100680.78;3581853;40;20155;-66
2023/08/27 00:45:39;;;;;;;3.45;1.92;;;;;;;15.78;90.17;100682.50;3583209;40;20052;-65
2023/08/27 00:48:06;;;;;;;4.45;1.92;;;;;;;15.72;90.04;100674.88;3582189;40;20161;-66
2023/08/27 00:50:32;;;;;;;1.90;1.80;;;;;;;15.68;89.62;100684.28;3576016;40;20418;-66
2023/08/27 00:52:58;;;;;;;2.30;2.10;;;;;;;15.69;90.72;100680.56;3584622;40;20052;-65
2023/08/27 00:55:24;;;;;;;2.17;1.92;;;;;;;15.69;90.66;100686.00;3582987;40;20215;-65
2023/08/27 00:57:51;;;;;;;1.83;1.70;;;;;;;15.53;91.19;100653.91;3585344;40;20095;-66
2023/08/27 01:00:19;;;;;;;2.15;1.42;;;;;;;15.69;91.16;100680.56;3581457;40;20052;-65
2023/08/27 01:02:46;;;;;;;2.50;1.50;;;;;;;15.68;90.78;100674.31;3582348;40;20054;-65
2023/08/27 01:05:12;;;;;;;2.05;1.63;;;;;;;15.63;90.72;100673.78;3583775;40;20371;-65
2023/08/27 01:07:54;;;;;;;2.60;1.80;;;;;;;15.59;91.01;100676.91;3582666;40;20079;-65
2023/08/27 01:10:46;;;;;;;2.40;1.75;;;;;;;15.57;91.40;100682.44;3582093;40;20311;-65
2023/08/27 01:13:23;;;;;;;3.17;1.90;;;;;;;15.53;90.82;100671.00;3583534;40;20156;-66
2023/08/27 01:16:00;;;;;;;2.58;1.55;;;;;;;15.52;91.07;100668.44;3581923;39;20122;-66
2023/08/27 01:18:28;;;;;;;2.50;1.65;;;;;;;15.16;90.67;100612.81;3583834;40;20059;-66
2023/08/27 01:20:53;;;;;;;1.60;1.38;;;;;;;15.45;91.07;100673.53;3576730;40;20057;-66
2023/08/27 01:23:19;;;;;;;2.08;1.73;;;;;;;15.43;91.58;100670.06;3576714;40;20420;-65
2023/08/27 01:25:50;;;;;;;2.63;1.88;;;;;;;15.39;91.50;100665.06;3582356;40;20598;-65
2023/08/27 01:28:40;;;;;;;2.75;1.80;;;;;;;15.29;91.23;100662.28;3582603;40;20387;-65
2023/08/27 01:31:15;;;;;;;2.50;1.88;;;;;;;15.29;91.79;100663.13;3583722;40;20064;-66
2023/08/27 01:33:45;;;;;;;2.83;1.80;;;;;;;15.29;92.42;100662.28;3584442;40;20109;-66
2023/08/27 01:36:11;;;;;;;2.13;1.92;;;;;;;15.29;92.62;100656.84;3581053;39;20538;-66
2023/08/27 01:38:37;;;;;;;2.13;1.70;;;;;;;15.27;92.80;100653.41;3584509;40;20095;-66
2023/08/27 01:41:03;;;;;;;1.70;1.58;;;;;;;15.18;92.07;100643.34;3581502;40;20067;-66
2023/08/27 01:43:28;;;;;;;1.70;1.60;;;;;;;15.22;92.45;100652.94;3582096;40;20047;-65
2023/08/27 01:45:54;;;;;;;2.67;2.05;;;;;;;15.24;92.57;100665.34;3582141;40;20071;-66
2023/08/27 01:48:20;;;;;;;2.00;1.80;;;;;;;14.91;92.96;100609.50;3583592;40;20059;-66
2023/08/27 01:50:46;;;;;;;1.85;1.75;;;;;;;15.24;92.99;100659.94;3583693;40;20104;-67
2023/08/27 01:53:12;;;;;;;3.08;1.95;;;;;;;15.24;92.80;100661.78;3581566;40;20044;-65
2023/08/27 01:55:38;;;;;;;1.73;1.58;;;;;;;15.23;92.94;100643.84;3583432;40;20056;-65
2023/08/27 01:58:04;;;;;;;2.38;1.70;;;;;;;15.27;93.71;100653.41;3584957;40;20050;-66
2023/08/27 02:00:30;;;;;;;1.85;1.75;;;;;;;15.27;94.23;100646.13;3583038;40;20064;-65
2023/08/27 02:02:55;;;;;;;3.33;1.67;;;;;;;15.30;92.75;100645.88;3581553;40;20052;-68
2023/08/27 02:05:21;;;;;;;3.10;2.00;;;;;;;15.32;93.14;100646.63;3583699;40;22199;-69
2023/08/27 02:07:47;;;;;;;2.47;2.08;;;;;;;15.34;92.83;100643.78;3581931;40;20055;-66
2023/08/27 02:10:12;;;;;;;2.85;1.88;;;;;;;15.34;92.14;100654.59;3583483;40;20047;-67
2023/08/27 02:12:38;;;;;;;2.25;2.05;;;;;;;15.38;93.29;100656.09;3585182;39;20336;-66
2023/08/27 02:15:07;;;;;;;1.70;1.60;;;;;;;15.37;92.37;100650.78;3581518;39;20048;-66
2023/08/27 02:17:33;;;;;;;3.03;2.00;;;;;;;15.47;92.60;100655.28;3582420;40;20048;-66
2023/08/27 02:19:59;;;;;;;1.95;1.85;;;;;;;15.47;91.76;100660.69;3582852;40;20392;-66
2023/08/27 02:22:25;;;;;;;3.88;2.00;;;;;;;15.43;91.50;100653.81;3581538;40;20048;-65
2023/08/27 02:24:50;;;;;;;2.83;2.05;;;;;;;15.46;90.76;100658.97;3585193;40;20068;-65
2023/08/27 02:27:16;;;;;;;2.40;2.20;;;;;;;15.42;91.28;100646.69;3581014;40;20051;-64
2023/08/27 02:29:41;;;;;;;2.70;2.40;;;;;;;15.46;91.28;100648.16;3584040;40;20310;-64
2023/08/27 02:32:07;;;;;;;2.45;2.25;;;;;;;15.42;91.53;100656.69;3580904;40;20052;-64
2023/08/27 02:34:33;;;;;;;2.45;2.20;;;;;;;15.39;91.25;100662.34;3583477;40;20074;-64
2023/08/27 02:36:58;;;;;;;3.28;2.42;;;;;;;15.36;91.95;100662.63;3581419;40;20534;-64
2023/08/27 02:39:24;;;;;;;2.83;2.30;;;;;;;15.33;93.25;100667.28;3583689;40;20386;-63
2023/08/27 02:41:49;;;;;;;2.95;2.47;;;;;;;15.33;93.46;100653.75;3580960;40;20067;-64
2023/08/27 02:44:15;;;;;;;2.72;2.40;;;;;;;15.29;93.84;100655.00;3583114;40;20052;-64
2023/08/27 02:46:40;;;;;;;2.95;2.65;;;;;;;15.28;93.92;100655.13;3583848;40;20071;-64
2023/08/27 02:49:06;;;;;;;5.22;2.65;;;;;;;15.33;94.32;100669.16;3584002;39;20060;-63
2023/08/27 02:51:32;;;;;;;3.05;2.65;;;;;;;15.33;95.16;100647.47;3583922;40;20126;-64
2023/08/27 02:53:57;;;;;;;6.97;2.60;;;;;;;15.37;95.46;100659.75;3574713;39;20063;-64
2023/08/27 02:56:23;;;;;;;4.18;2.67;;;;;;;15.39;95.29;100660.50;3582825;40;20362;-64
2023/08/27 02:58:50;;;;;;;3.55;2.65;;;;;;;15.41;95.84;100655.78;3583045;39;20083;-64
2023/08/27 03:01:20;;;;;;;3.28;2.65;;;;;;;15.44;95.03;100652.81;3582801;40;20353;-65
2023/08/27 03:03:50;;;;;;;3.85;2.80;;;;;;;15.48;96.11;100661.56;3582649;40;20321;-65
2023/08/27 03:06:18;;;;;;;4.50;2.97;;;;;;;15.36;95.63;100639.09;3585161;40;20048;-65
2023/08/27 03:08:43;;;;;;;3.65;2.70;;;;;;;15.52;95.32;100655.75;3573069;40;20362;-65
2023/08/27 03:11:09;;;;;;;2.72;2.42;;;;;;;15.54;95.15;100650.22;3582702;40;20071;-64
2023/08/27 03:13:35;;;;;;;3.45;2.70;;;;;;;15.55;94.71;100652.78;3583536;40;20060;-65
2023/08/27 03:16:01;;;;;;;3.03;2.80;;;;;;;15.55;94.19;100660.91;3584191;40;20058;-65
2023/08/27 03:18:29;;;;;;;2.97;2.70;;;;;;;15.58;95.36;100669.78;3568235;40;20060;-65
2023/08/27 03:20:55;;;;;;;3.13;2.83;;;;;;;15.61;95.53;100664.09;3572409;40;20056;-65
2023/08/27 03:23:21;;;;;;;4.03;2.67;;;;;;;15.62;95.10;100668.53;3582107;40;20044;-65
2023/08/27 03:25:52;;;;;;;6.47;2.88;;;;;;;15.31;94.67;100627.78;3576278;40;20075;-65
2023/08/27 03:28:17;;;;;;;3.13;2.80;;;;;;;15.57;94.93;100671.59;3584802;40;20051;-65
2023/08/27 03:30:43;;;;;;;4.03;3.03;;;;;;;15.60;94.76;100681.31;3584641;40;20056;-65
2023/08/27 03:33:09;;;;;;;5.00;3.20;;;;;;;15.58;95.75;100661.66;3587033;40;20291;-65
2023/08/27 03:35:35;;;;;;;3.30;3.00;;;;;;;15.59;95.90;100664.22;3580819;40;20088;-65
2023/08/27 03:38:01;;;;;;;4.03;2.83;;;;;;;15.56;95.18;100664.47;3580248;40;20053;-65
2023/08/27 03:40:26;;;;;;;3.60;2.88;;;;;;;15.56;96.54;100654.50;3583324;40;20067;-66
2023/08/27 03:42:52;;;;;;;4.72;3.00;;;;;;;15.56;97.18;100643.66;3582875;40;20366;-64
2023/08/27 03:45:18;;;;;;;4.15;3.10;;;;;;;15.53;96.37;100640.34;3582714;40;20246;-64
2023/08/27 03:47:44;;;;;;;3.70;3.38;;;;;;;15.52;96.00;100628.66;3585657;40;20044;-64
2023/08/27 03:50:10;;;;;;;3.42;3.00;;;;;;;15.52;97.10;100638.66;3584984;40;20063;-63
2023/08/27 03:52:35;;;;;;;3.72;3.10;;;;;;;15.54;97.38;100628.53;3583642;40;20052;-64
2023/08/27 03:55:02;;;;;;;6.28;3.22;;;;;;;15.52;96.83;100625.94;3582933;40;20056;-64
2023/08/27 03:57:28;;;;;;;3.88;2.92;;;;;;;15.55;97.13;100628.41;3585084;40;20068;-64
2023/08/27 03:59:53;;;;;;;3.05;2.75;;;;;;;15.54;95.83;100621.28;3586398;40;20521;-64
2023/08/27 04:02:19;;;;;;;4.53;3.22;;;;;;;15.53;96.35;100614.13;3581449;40;20416;-64
2023/08/27 04:04:45;;;;;;;3.90;3.00;;;;;;;15.49;96.23;100614.53;3585436;39;20072;-63
2023/08/27 04:07:12;;;;;;;3.40;3.05;;;;;;;15.52;97.18;100631.38;3585064;40;21488;-64
2023/08/27 04:09:38;;;;;;;4.88;2.83;;;;;;;15.53;96.85;100624.94;3584411;40;20048;-64
2023/08/27 04:12:04;;;;;;;3.00;2.70;;;;;;;15.55;97.25;100617.56;3583207;40;20058;-64
2023/08/27 04:14:30;;;;;;;3.03;2.80;;;;;;;15.55;97.65;100617.56;3581503;40;20310;-64
2023/08/27 04:16:55;;;;;;;3.40;2.58;;;;;;;15.60;97.04;100613.59;3580505;40;20052;-64
2023/08/27 04:19:21;;;;;;;3.38;2.70;;;;;;;15.63;97.37;100626.88;3581994;40;20477;-64
2023/08/27 04:21:47;;;;;;;4.38;2.90;;;;;;;15.64;97.12;100634.88;3586489;40;20068;-64
2023/08/27 04:24:13;;;;;;;4.45;3.30;;;;;;;15.64;97.06;100634.03;3584553;40;20055;-64
2023/08/27 04:26:39;;;;;;;3.88;2.83;;;;;;;15.64;96.53;100634.03;3582686;40;20062;-64
2023/08/27 04:29:04;;;;;;;4.13;2.80;;;;;;;15.61;96.13;100634.28;3583984;40;20052;-64
2023/08/27 04:31:30;;;;;;;4.38;3.10;;;;;;;15.59;95.36;100630.84;3583924;40;20071;-64
2023/08/27 04:33:55;;;;;;;2.40;2.20;;;;;;;15.58;96.86;100624.56;3585460;40;20052;-64
2023/08/27 04:36:21;;;;;;;4.40;2.90;;;;;;;15.56;95.99;100627.41;3583086;40;20347;-64
2023/08/27 04:38:47;;;;;;;3.35;2.78;;;;;;;15.55;96.18;100622.97;3581940;40;20060;-64
2023/08/27 04:41:12;;;;;;;3.00;2.45;;;;;;;15.52;96.13;100625.94;3583603;40;20066;-64
2023/08/27 04:43:38;;;;;;;4.68;2.72;;;;;;;15.47;95.18;100622.75;3582905;40;20165;-64
2023/08/27 04:46:04;;;;;;;4.80;2.55;;;;;;;15.48;96.55;100627.22;3581467;40;20075;-64
2023/08/27 04:48:30;;;;;;;3.40;2.38;;;;;;;15.49;95.46;100630.78;3586443;40;20051;-64
2023/08/27 04:50:58;;;;;;;5.13;2.72;;;;;;;15.19;95.20;100585.50;3585637;40;20064;-64
2023/08/27 04:53:26;;;;;;;3.30;2.75;;;;;;;15.44;95.61;100635.72;3581453;40;20056;-64
2023/08/27 04:55:53;;;;;;;4.32;2.70;;;;;;;15.21;95.15;100607.88;3583965;40;20161;-64
2023/08/27 04:58:18;;;;;;;4.80;2.63;;;;;;;15.38;95.56;100647.97;3583415;40;20062;-64
2023/08/27 05:00:44;;;;;;;2.65;2.30;;;;;;;15.24;95.44;100629.28;3582275;39;20060;-64
2023/08/27 05:03:10;;;;;;;2.85;2.40;;;;;;;15.35;96.08;100647.34;3584522;40;20472;-64
2023/08/27 05:05:36;;;;;;;3.40;2.30;;;;;;;15.41;95.88;100653.09;3587304;40;20059;-65
2023/08/27 05:08:02;;;;;;;3.33;2.47;;;;;;;15.41;95.94;100663.91;3582956;40;20327;-65
2023/08/27 05:10:27;;;;;;;3.75;2.30;;;;;;;15.45;96.02;100654.56;3581030;40;20108;-64
2023/08/27 05:12:53;;;;;;;3.72;2.47;;;;;;;15.43;95.76;100652.97;3585953;40;20062;-64
2023/08/27 05:15:20;;;;;;;5.55;2.88;;;;;;;15.41;97.35;100644.97;3581943;40;20052;-64
2023/08/27 05:17:49;;;;;;;3.15;2.55;;;;;;;15.46;96.86;100653.56;3583421;40;20377;-64
2023/08/27 05:20:16;;;;;;;3.65;2.90;;;;;;;15.49;96.86;100653.31;3582196;40;20141;-65
2023/08/27 05:22:42;;;;;;;2.40;2.20;;;;;;;15.51;96.07;100651.34;3584582;40;20056;-64
2023/08/27 05:25:09;;;;;;;4.47;2.63;;;;;;;15.50;96.54;100651.44;3585394;40;20071;-64
2023/08/27 05:27:34;;;;;;;4.90;2.92;;;;;;;15.53;96.33;100648.47;3584128;40;20666;-65
2023/08/27 05:30:00;;;;;;;5.25;3.08;;;;;;;15.55;96.62;100652.78;3584589;40;20099;-65
2023/08/27 05:32:26;;;;;;;5.03;3.10;;;;;;;15.56;95.94;100645.50;3581138;40;20168;-65
2023/08/27 05:34:53;;;;;;;3.63;2.92;;;;;;;15.55;96.02;100644.66;3584879;40;20060;-65
2023/08/27 05:37:19;;;;;;;3.45;3.13;;;;;;;15.58;96.52;100643.53;3582290;40;20100;-65
2023/08/27 05:39:45;;;;;;;3.33;3.03;;;;;;;15.56;96.67;100649.06;3576788;40;20058;-65
2023/08/27 05:42:10;;;;;;;4.75;3.35;;;;;;;15.58;97.01;100651.66;3581602;40;20503;-65
2023/08/27 05:44:36;;;;;;;7.13;3.10;;;;;;;15.56;96.88;100653.63;3581927;40;20052;-65
2023/08/27 05:47:02;;;;;;;3.45;3.13;;;;;;;15.60;96.67;100659.66;3586296;40;20056;-65
2023/08/27 05:49:27;;;;;;;5.43;3.35;;;;;;;15.59;96.43;100656.09;3584066;40;20299;-64
2023/08/27 05:51:53;;;;;;;5.25;3.33;;;;;;;15.56;95.44;100648.22;3585789;40;20079;-65
2023/08/27 05:54:19;;;;;;;5.88;3.33;;;;;;;15.58;95.74;100645.41;3581725;40;20066;-65
2023/08/27 05:56:44;;;;;;;4.70;3.08;;;;;;;15.59;95.58;100652.53;3582437;39;20056;-64
2023/08/27 05:59:13;;;;;;;6.75;3.25;;;;;;;15.56;96.97;100643.66;3583601;40;20226;-64
2023/08/27 06:01:41;;;;;;;3.85;3.20;;;;;;;15.60;96.66;100643.38;3584246;40;20095;-65
2023/08/27 06:04:06;;;;;;;3.80;3.40;;;;;;;15.62;96.96;100644.97;3584976;40;20048;-65
2023/08/27 06:06:32;;;;;;;3.15;2.90;;;;;;;15.63;96.00;100638.56;3584460;40;20063;-65
2023/08/27 06:08:58;;;;;;;4.57;2.80;;;;;;;15.62;96.15;100639.56;3583469;40;20071;-64
2023/08/27 06:11:23;;;;;;;4.00;2.90;;;;;;;15.67;96.06;100639.22;3582185;40;20078;-65
2023/08/27 06:13:49;;;;;;;5.20;3.17;;;;;;;15.64;96.16;100632.16;3572230;40;20091;-66
2023/08/27 06:16:14;;;;;;;3.90;3.20;;;;;;;15.66;95.95;100632.88;3572900;40;20048;-64
2023/08/27 06:18:40;;;;;;;3.40;3.08;;;;;;;15.67;96.02;100633.78;3584271;40;20064;-66
2023/08/27 06:21:06;;;;;;;5.00;3.35;;;;;;;15.48;95.67;100597.41;3579506;40;20535;-65
2023/08/27 06:23:32;;;;;;;4.20;3.05;;;;;;;15.36;95.71;100571.38;3578478;40;20066;-65
2023/08/27 06:26:04;;;;;;;3.22;2.92;;;;;;;15.46;95.24;100591.25;3586157;40;20060;-65
2023/08/27 06:28:30;;;;;;;3.77;3.00;;;;;;;15.68;95.14;100622.81;3583838;40;20060;-64
2023/08/27 06:30:56;;;;;;;5.32;3.00;;;;;;;15.70;95.37;100622.69;3587647;40;20054;-64
2023/08/27 06:33:22;;;;;;;5.72;3.17;;;;;;;15.63;95.59;100602.47;3576165;40;20127;-65
2023/08/27 06:35:48;;;;;;;3.63;2.97;;;;;;;15.77;95.25;100624.72;3585121;40;20383;-65
2023/08/27 06:38:14;;;;;;;3.63;2.95;;;;;;;15.78;95.28;100625.59;3586137;40;20050;-65
2023/08/27 06:40:39;;;;;;;3.75;2.90;;;;;;;15.73;95.52;100615.16;3584009;40;20056;-65
2023/08/27 06:43:05;;;;;;;4.25;3.00;;;;;;;15.82;95.12;100624.31;3584337;40;20429;-65
2023/08/27 06:45:30;;;;;;;4.10;3.15;;;;;;;15.91;96.04;100626.22;3581161;40;20375;-65
2023/08/27 06:47:56;;;;;;;5.82;3.30;;;;;;;15.94;95.33;100625.94;3584099;40;20059;-64
2023/08/27 06:50:22;;;;;;;4.25;2.92;;;;;;;15.91;94.52;100612.66;3588181;40;20082;-64
2023/08/27 06:52:48;;;;;;;5.57;3.25;;;;;;;16.08;96.05;100632.00;3582686;39;20059;-65
2023/08/27 06:55:13;;;;;;;3.78;2.90;;;;;;;16.17;95.23;100636.63;3582665;40;20048;-65
2023/08/27 06:57:39;;;;;;;3.55;2.70;;;;;;;16.26;94.83;100641.25;3585009;40;20062;-65
2023/08/27 07:00:07;;;;;;;4.47;3.35;;;;;;;16.09;95.32;100582.22;3585034;39;20054;-65
2023/08/27 07:02:33;;;;;;;4.78;3.20;;;;;;;16.48;93.57;100635.59;3583859;40;20361;-65
2023/08/27 07:05:00;;;;;;;4.97;3.03;;;;;;;16.52;94.62;100635.34;3585839;40;20056;-65
2023/08/27 07:07:26;;;;;;;4.13;2.92;;;;;;;16.65;92.22;100644.09;3584234;40;20060;-65
2023/08/27 07:09:52;;;;;;;4.20;3.10;;;;;;;16.74;92.54;100647.81;3584014;40;20064;-65
2023/08/27 07:12:20;;;;;;;3.85;3.03;;;;;;;16.90;93.44;100648.19;3585759;40;20059;-65
2023/08/27 07:14:46;;;;;;;4.28;2.92;;;;;;;16.96;90.88;100649.47;3584634;40;20280;-65
2023/08/27 07:17:14;;;;;;;4.95;3.10;;;;;;;17.00;91.21;100640.94;3586515;40;20072;-66
2023/08/27 07:19:40;;;;;;;3.13;2.67;;;;;;;17.12;89.41;100645.19;3583715;40;20056;-65
2023/08/27 07:22:06;;;;;;;6.38;3.20;;;;;;;17.16;88.60;100645.81;3585856;40;20467;-65
2023/08/27 07:24:31;;;;;;;4.22;3.20;;;;;;;17.24;89.86;100654.09;3583808;40;20957;-65
2023/08/27 07:26:57;;;;;;;5.60;3.40;;;;;;;17.36;89.27;100641.22;3584542;40;20075;-64
2023/08/27 07:29:24;;;;;;;3.53;3.10;;;;;;;17.47;89.19;100637.50;3588829;40;20044;-64
2023/08/27 07:31:49;;;;;;;8.50;3.33;;;;;;;17.51;87.28;100633.50;3582730;40;20096;-64
2023/08/27 07:34:15;;;;;;;4.75;3.03;;;;;;;17.56;86.59;100632.03;3582188;40;20055;-64
2023/08/27 07:36:40;;;;;;;5.05;3.58;;;;;;;17.59;85.96;100625.47;3585230;40;20075;-64
2023/08/27 07:39:06;;;;;;;8.27;3.25;;;;;;;17.84;86.35;100646.63;3587713;40;20059;-64
2023/08/27 07:41:32;;;;;;;6.88;3.70;;;;;;;17.94;85.59;100645.75;3584961;40;20115;-63
2023/08/27 07:43:58;;;;;;;4.72;3.38;;;;;;;18.06;84.76;100640.00;3578684;40;20738;-63
2023/08/27 07:46:24;;;;;;;7.45;3.30;;;;;;;18.16;83.68;100656.28;3585729;40;20048;-64
2023/08/27 07:48:49;;;;;;;7.43;3.63;;;;;;;18.31;83.63;100662.13;3584265;39;21166;-64
2023/08/27 07:51:15;;;;;;;5.05;3.00;;;;;;;18.36;80.92;100653.50;3584592;40;20319;-64
2023/08/27 07:53:41;;;;;;;6.28;3.83;;;;;;;18.37;81.16;100658.78;3584725;40;20070;-65
2023/08/27 07:56:06;;;;;;;5.65;3.60;;;;;;;18.39;81.70;100650.47;3586389;40;20062;-65
2023/08/27 07:58:32;;;;;;;4.47;3.35;;;;;;;18.55;81.65;100647.94;3585445;40;20056;-65
2023/08/27 08:00:59;;;;;;;6.22;3.47;;;;;;;18.75;82.02;100641.44;3584208;40;20307;-65
2023/08/27 08:03:25;;;;;;;6.53;3.28;;;;;;;18.91;80.25;100639.91;3582954;40;20055;-65
2023/08/27 08:05:52;;;;;;;3.92;3.10;;;;;;;18.89;79.48;100618.25;3570112;40;20088;-66
2023/08/27 08:08:17;;;;;;;3.70;2.83;;;;;;;19.12;78.59;100636.88;3580685;40;20083;-65
2023/08/27 08:10:43;;;;;;;4.38;2.97;;;;;;;19.28;78.40;100641.63;3584435;40;20386;-65
2023/08/27 08:13:09;;;;;;;7.00;2.85;;;;;;;19.33;76.71;100639.31;3586870;40;20540;-65
2023/08/27 08:15:35;;;;;;;3.67;2.60;;;;;;;19.24;75.47;100646.56;3586906;40;20379;-65
2023/08/27 08:18:01;;;;;;;5.72;3.28;;;;;;;19.12;74.46;100654.09;3582851;39;20115;-65
2023/08/27 08:20:26;;;;;;;5.25;2.90;;;;;;;18.96;73.51;100649.31;3587426;40;20331;-65
2023/08/27 08:22:52;;;;;;;6.00;3.00;;;;;;;18.82;72.89;100658.03;3585741;40;20063;-64
2023/08/27 08:25:17;;;;;;;6.85;2.80;;;;;;;18.73;74.46;100653.50;3584891;40;20102;-66
2023/08/27 08:27:43;;;;;;;4.82;2.95;;;;;;;18.73;74.49;100658.94;3579303;40;20066;-65
2023/08/27 08:30:09;;;;;;;6.03;2.83;;;;;;;18.81;75.08;100655.44;3580046;40;20056;-66
2023/08/27 08:32:34;;;;;;;4.30;2.85;;;;;;;18.94;75.35;100664.97;3583854;40;20060;-66
2023/08/27 08:35:01;;;;;;;3.28;2.80;;;;;;;18.99;74.68;100649.00;3585982;40;20052;-67
2023/08/27 08:37:27;;;;;;;5.50;2.90;;;;;;;19.17;73.95;100662.66;3590085;40;20389;-66
2023/08/27 08:39:53;;;;;;;4.70;2.72;;;;;;;19.40;73.30;100652.16;3584542;39;20074;-67
2023/08/27 08:42:50;;;;;;;6.43;3.72;;;;;;;19.59;71.46;100659.31;3585860;40;20133;-66
2023/08/27 08:45:29;;;;;;;4.43;2.50;;;;;;;19.72;71.09;100661.66;3586935;39;20123;-67
2023/08/27 08:47:56;;;;;;;4.53;2.38;;;;;;;19.73;68.74;100625.22;3589075;40;20433;-67
2023/08/27 08:50:22;;;;;;;7.95;2.13;;;;;;;20.09;69.28;100653.22;3589095;40;20373;-66
2023/08/27 08:52:50;;;;;;;4.13;2.50;;;;;;;20.29;67.80;100647.53;3587996;40;20060;-67
2023/08/27 08:55:21;;;;;;;3.85;2.20;;;;;;;20.46;68.75;100663.00;3587748;40;20047;-67
2023/08/27 08:58:09;;;;;;;3.53;2.20;;;;;;;20.68;67.01;100647.06;3589416;40;20066;-67
2023/08/27 09:00:35;;;;;;;4.03;1.83;;;;;;;20.96;66.14;100656.72;3586059;40;20060;-67
2023/08/27 09:03:04;;;;;;;2.47;1.88;;;;;;;21.15;65.14;100660.19;3585627;40;20068;-67
2023/08/27 09:05:32;;;;;;;4.93;2.10;;;;;;;21.08;62.81;100658.13;3583945;40;20383;-67
2023/08/27 09:07:59;;;;;;;4.40;1.98;;;;;;;20.89;63.56;100655.69;3585610;40;20064;-67
2023/08/27 09:10:27;;;;;;;3.47;2.03;;;;;;;20.68;60.77;100649.78;3587385;40;20409;-66
2023/08/27 09:12:56;;;;;;;2.70;1.50;;;;;;;20.69;63.35;100651.53;3585108;40;20338;-67
2023/08/27 09:15:23;;;;;;;3.13;1.70;;;;;;;20.71;62.77;100641.28;3588494;40;20315;-66
2023/08/27 09:17:49;;;;;;;5.50;2.25;;;;;;;20.55;63.12;100636.59;3585498;40;21245;-66
2023/08/27 09:20:15;;;;;;;4.35;1.85;;;;;;;20.50;63.00;100634.34;3585259;40;20134;-66
2023/08/27 09:22:42;;;;;;;4.13;1.65;;;;;;;20.61;62.76;100633.22;3576073;40;20041;-66
2023/08/27 09:25:10;;;;;;;5.22;1.73;;;;;;;20.72;63.15;100632.06;3587169;40;20589;-66
2023/08/27 09:27:36;;;;;;;4.25;1.80;;;;;;;20.88;63.00;100632.13;3586491;40;20048;-66
2023/08/27 09:30:03;;;;;;;3.58;1.67;;;;;;;20.89;62.81;100628.34;3586006;40;20071;-66
2023/08/27 09:32:30;;;;;;;4.18;1.77;;;;;;;20.82;63.02;100625.44;3589470;40;20052;-66
2023/08/27 09:35:05;;;;;;;3.50;1.70;;;;;;;20.65;60.12;100620.97;3584667;40;20052;-66
2023/08/27 09:37:42;;;;;;;2.47;1.50;;;;;;;20.35;60.94;100603.22;3587470;40;20052;-66
2023/08/27 09:40:10;;;;;;;4.35;1.83;;;;;;;20.21;61.28;100618.34;3585586;40;20133;-66
2023/08/27 09:42:37;;;;;;;3.08;1.80;;;;;;;19.98;62.76;100607.13;3586803;39;20109;-66
2023/08/27 09:45:03;;;;;;;5.35;1.67;;;;;;;19.96;63.73;100606.44;3585393;40;20438;-65
2023/08/27 09:47:31;;;;;;;2.92;1.73;;;;;;;20.12;63.24;100609.25;3586815;40;20086;-65
2023/08/27 09:49:59;;;;;;;4.75;1.90;;;;;;;20.13;63.87;100613.69;3585087;40;20056;-66
2023/08/27 09:52:29;;;;;;;5.40;1.75;;;;;;;20.08;64.41;100588.75;3584757;40;20063;-66
2023/08/27 09:54:55;;;;;;;4.43;1.75;;;;;;;20.28;63.71;100591.25;3583438;40;20088;-66
2023/08/27 09:57:21;;;;;;;3.90;1.70;;;;;;;20.36;63.46;100610.38;3588046;40;20063;-65
2023/08/27 09:59:48;;;;;;;3.58;1.45;;;;;;;20.06;61.87;100584.47;3586606;39;20048;-66
2023/08/27 10:02:15;;;;;;;3.25;1.45;;;;;;;19.89;61.04;100575.34;3587221;40;20052;-66
2023/08/27 10:04:57;;;;;;;4.47;1.48;;;;;;;20.29;62.14;100603.88;3585897;40;20088;-66
2023/08/27 10:07:23;;;;;;;2.78;1.50;;;;;;;20.64;63.43;100608.31;3587429;40;20058;-66
2023/08/27 10:09:51;;;;;;;3.22;1.50;;;;;;;20.97;60.70;100592.88;3582809;40;20080;-66
2023/08/27 10:12:18;;;;;;;5.00;2.40;;;;;;;21.35;59.37;100609.69;3586285;40;20052;-66
2023/08/27 10:14:45;;;;;;;3.10;1.67;;;;;;;21.31;58.90;100542.63;3581165;40;20426;-66
2023/08/27 10:17:16;;;;;;;4.78;1.50;;;;;;;21.83;57.68;100601.63;3584089;40;20059;-66
2023/08/27 10:19:42;;;;;;;2.75;1.20;;;;;;;21.72;56.46;100611.03;3585634;40;20048;-66
2023/08/27 10:22:08;;;;;;;3.53;1.40;;;;;;;21.48;56.29;100607.28;3588823;40;20064;-66
2023/08/27 10:24:34;;;;;;;2.67;1.20;;;;;;;21.37;57.23;100580.28;3584029;40;20485;-66
2023/08/27 10:27:03;;;;;;;3.40;1.02;;;;;;;21.66;57.01;100604.38;3582310;40;20096;-66
2023/08/27 10:29:30;;;;;;;3.55;1.27;;;;;;;21.79;57.35;100565.53;3584411;40;20077;-66
2023/08/27 10:31:57;;;;;;;2.40;1.05;;;;;;;22.26;54.88;100603.06;3584629;40;20451;-66
2023/08/27 10:34:27;;;;;;;2.95;1.00;;;;;;;22.53;54.40;100589.97;3583909;40;20074;-67
2023/08/27 10:37:02;;;;;;;3.03;1.00;;;;;;;22.39;52.38;100611.59;3574538;40;20056;-66
2023/08/27 10:39:32;;;;;;;3.63;1.08;;;;;;;22.12;52.42;100604.63;3582704;39;20070;-66
2023/08/27 10:41:58;;;;;;;4.13;1.35;;;;;;;21.78;53.38;100604.84;3582658;40;20053;-66
2023/08/27 10:44:24;;;;;;;4.20;1.27;;;;;;;21.61;54.80;100605.91;3584525;40;20056;-66
2023/08/27 10:47:19;;;;;;;1.60;1.30;;;;;;;21.39;54.77;100608.31;3580805;40;20064;-66
2023/08/27 10:49:48;;;;;;;2.92;1.30;;;;;;;21.43;55.42;100620.59;3573674;40;20063;-66
2023/08/27 10:52:20;;;;;;;1.63;0.80;;;;;;;21.37;56.58;100620.44;3584783;40;20362;-66
2023/08/27 10:54:47;;;;;;;2.35;1.00;;;;;;;21.25;56.66;100612.56;3583671;40;20124;-65
2023/08/27 10:57:36;;;;;;;3.45;1.30;;;;;;;21.17;56.37;100619.88;3585638;40;20342;-66
2023/08/27 11:00:10;;;;;;;3.53;1.35;;;;;;;21.07;56.65;100614.56;3582487;40;20051;-66
2023/08/27 11:02:58;;;;;;;3.47;1.30;;;;;;;20.95;57.87;100611.28;3579819;40;20063;-65
2023/08/27 11:05:29;;;;;;;3.42;2.42;;;;;;;20.80;58.64;100588.38;3581201;40;20044;-66
2023/08/27 11:07:59;;;;;;;3.25;1.15;;;;;;;21.19;58.53;100601.44;3582453;40;20064;-66
2023/08/27 11:10:34;;;;;;;2.90;1.13;;;;;;;21.64;57.75;100605.56;3581344;40;20059;-66
2023/08/27 11:13:00;;;;;;;1.88;0.95;;;;;;;21.91;54.19;100607.06;3582970;40;20052;-66
2023/08/27 11:15:32;;;;;;;1.13;0.90;;;;;;;21.90;53.14;100606.22;3576670;40;20056;-65
2023/08/27 11:18:00;;;;;;;3.63;0.90;;;;;;;21.68;52.93;100591.38;3582763;40;20102;-65
2023/08/27 11:20:27;;;;;;;2.63;0.90;;;;;;;21.71;53.43;100623.00;3583719;40;20097;-65
2023/08/27 11:23:08;;;;;;;2.65;0.95;;;;;;;21.38;55.33;100647.63;3584298;40;20052;-66
2023/08/27 11:25:39;;;;;;;1.08;0.80;;;;;;;20.75;59.60;100675.47;3583842;40;20059;-68